sensor_id;sensor_type;location;lat;lon;timestamp;temperature;humidity
8105;DHT22;4095;48.942;9.104;2022-08-21T00:00:26;20.00;91.50
8105;DHT22;4095;48.942;9.104;2022-08-21T00:02:59;20.00;91.70
8105;DHT22;4095;48.942;9.104;2022-08-21T00:05:27;20.00;91.70
8105;DHT22;4095;48.942;9.104;2022-08-21T00:07:53;19.80;91.60
8105;DHT22;4095;48.942;9.104;2022-08-21T00:10:19;19.80;91.70
8105;DHT22;4095;48.942;9.104;2022-08-21T00:12:45;19.80;91.70
8105;DHT22;4095;48.942;9.104;2022-08-21T00:15:14;19.80;92.00
8105;DHT22;4095;48.942;9.104;2022-08-21T00:17:41;19.70;92.00
8105;DHT22;4095;48.942;9.104;2022-08-21T00:20:08;19.60;91.80
8105;DHT22;4095;48.942;9.104;2022-08-21T00:22:36;19.60;92.10
8105;DHT22;4095;48.942;9.104;2022-08-21T00:25:04;19.60;91.90
8105;DHT22;4095;48.942;9.104;2022-08-21T00:27:30;19.50;91.50
8105;DHT22;4095;48.942;9.104;2022-08-21T00:29:55;19.50;91.20
8105;DHT22;4095;48.942;9.104;2022-08-21T00:32:22;19.50;91.20
8105;DHT22;4095;48.942;9.104;2022-08-21T00:34:49;19.40;91.10
8105;DHT22;4095;48.942;9.104;2022-08-21T00:37:14;19.40;91.00
8105;DHT22;4095;48.942;9.104;2022-08-21T00:39:40;19.30;91.10
8105;DHT22;4095;48.942;9.104;2022-08-21T00:42:06;19.30;91.10
8105;DHT22;4095;48.942;9.104;2022-08-21T00:44:31;19.20;91.40
8105;DHT22;4095;48.942;9.104;2022-08-21T00:46:57;19.10;91.20
8105;DHT22;4095;48.942;9.104;2022-08-21T00:49:22;19.10;91.20
8105;DHT22;4095;48.942;9.104;2022-08-21T00:51:54;19.00;91.10
8105;DHT22;4095;48.942;9.104;2022-08-21T00:54:22;19.00;91.30
8105;DHT22;4095;48.942;9.104;2022-08-21T00:56:54;19.00;91.20
8105;DHT22;4095;48.942;9.104;2022-08-21T00:59:21;19.00;91.20
8105;DHT22;4095;48.942;9.104;2022-08-21T01:01:49;19.00;91.40
8105;DHT22;4095;48.942;9.104;2022-08-21T01:04:15;19.00;91.60
8105;DHT22;4095;48.942;9.104;2022-08-21T01:06:42;18.90;91.60
8105;DHT22;4095;48.942;9.104;2022-08-21T01:09:07;18.90;91.80
8105;DHT22;4095;48.942;9.104;2022-08-21T01:11:34;18.90;91.70
8105;DHT22;4095;48.942;9.104;2022-08-21T01:14:00;18.80;91.90
8105;DHT22;4095;48.942;9.104;2022-08-21T01:16:26;18.80;91.90
8105;DHT22;4095;48.942;9.104;2022-08-21T01:18:52;18.70;91.80
8105;DHT22;4095;48.942;9.104;2022-08-21T01:21:23;18.70;91.80
8105;DHT22;4095;48.942;9.104;2022-08-21T01:23:52;18.70;91.90
8105;DHT22;4095;48.942;9.104;2022-08-21T01:26:22;18.70;91.90
8105;DHT22;4095;48.942;9.104;2022-08-21T01:28:54;18.60;92.20
8105;DHT22;4095;48.942;9.104;2022-08-21T01:31:24;18.50;92.10
8105;DHT22;4095;48.942;9.104;2022-08-21T01:33:50;18.60;92.20
8105;DHT22;4095;48.942;9.104;2022-08-21T01:36:16;18.50;92.20
8105;DHT22;4095;48.942;9.104;2022-08-21T01:38:41;18.50;92.20
8105;DHT22;4095;48.942;9.104;2022-08-21T01:41:07;18.40;92.40
8105;DHT22;4095;48.942;9.104;2022-08-21T01:43:33;18.30;92.30
8105;DHT22;4095;48.942;9.104;2022-08-21T01:45:58;18.20;92.40
8105;DHT22;4095;48.942;9.104;2022-08-21T01:48:24;18.20;92.40
8105;DHT22;4095;48.942;9.104;2022-08-21T01:50:50;18.20;92.40
8105;DHT22;4095;48.942;9.104;2022-08-21T01:53:15;18.20;92.40
8105;DHT22;4095;48.942;9.104;2022-08-21T01:55:42;18.20;92.40
8105;DHT22;4095;48.942;9.104;2022-08-21T01:58:08;18.30;92.50
8105;DHT22;4095;48.942;9.104;2022-08-21T02:00:34;18.30;92.40
8105;DHT22;4095;48.942;9.104;2022-08-21T02:02:59;18.30;92.60
8105;DHT22;4095;48.942;9.104;2022-08-21T02:05:25;18.20;92.70
8105;DHT22;4095;48.942;9.104;2022-08-21T02:07:52;18.10;92.70
8105;DHT22;4095;48.942;9.104;2022-08-21T02:10:24;18.10;92.70
8105;DHT22;4095;48.942;9.104;2022-08-21T02:12:52;18.10;92.80
8105;DHT22;4095;48.942;9.104;2022-08-21T02:15:18;17.90;92.70
8105;DHT22;4095;48.942;9.104;2022-08-21T02:17:56;17.90;92.90
8105;DHT22;4095;48.942;9.104;2022-08-21T02:20:31;17.90;92.90
8105;DHT22;4095;48.942;9.104;2022-08-21T02:22:57;17.90;92.90
8105;DHT22;4095;48.942;9.104;2022-08-21T02:25:24;17.90;93.00
8105;DHT22;4095;48.942;9.104;2022-08-21T02:27:51;17.90;93.00
8105;DHT22;4095;48.942;9.104;2022-08-21T02:30:21;17.90;92.90
8105;DHT22;4095;48.942;9.104;2022-08-21T02:32:47;17.90;93.00
8105;DHT22;4095;48.942;9.104;2022-08-21T02:35:13;17.90;93.10
8105;DHT22;4095;48.942;9.104;2022-08-21T02:37:52;17.90;93.10
8105;DHT22;4095;48.942;9.104;2022-08-21T02:40:20;17.80;93.10
8105;DHT22;4095;48.942;9.104;2022-08-21T02:42:46;17.70;93.10
8105;DHT22;4095;48.942;9.104;2022-08-21T02:45:13;17.80;93.20
8105;DHT22;4095;48.942;9.104;2022-08-21T02:47:39;17.70;93.20
8105;DHT22;4095;48.942;9.104;2022-08-21T02:50:07;17.80;93.20
8105;DHT22;4095;48.942;9.104;2022-08-21T02:52:32;17.70;93.30
8105;DHT22;4095;48.942;9.104;2022-08-21T02:55:00;17.70;93.10
8105;DHT22;4095;48.942;9.104;2022-08-21T02:57:26;17.60;93.30
8105;DHT22;4095;48.942;9.104;2022-08-21T02:59:51;17.60;93.30
8105;DHT22;4095;48.942;9.104;2022-08-21T03:02:17;17.60;93.40
8105;DHT22;4095;48.942;9.104;2022-08-21T03:04:42;17.60;93.50
8105;DHT22;4095;48.942;9.104;2022-08-21T03:07:08;17.60;93.50
8105;DHT22;4095;48.942;9.104;2022-08-21T03:09:34;17.60;93.50
8105;DHT22;4095;48.942;9.104;2022-08-21T03:11:59;17.50;93.50
8105;DHT22;4095;48.942;9.104;2022-08-21T03:14:25;17.40;93.40
8105;DHT22;4095;48.942;9.104;2022-08-21T03:16:50;17.30;93.60
8105;DHT22;4095;48.942;9.104;2022-08-21T03:19:16;17.30;93.60
8105;DHT22;4095;48.942;9.104;2022-08-21T03:21:41;17.30;93.50
8105;DHT22;4095;48.942;9.104;2022-08-21T03:24:07;17.30;93.40
8105;DHT22;4095;48.942;9.104;2022-08-21T03:26:33;17.20;93.60
8105;DHT22;4095;48.942;9.104;2022-08-21T03:28:59;17.20;93.80
8105;DHT22;4095;48.942;9.104;2022-08-21T03:31:25;17.10;93.90
8105;DHT22;4095;48.942;9.104;2022-08-21T03:33:56;17.10;94.20
8105;DHT22;4095;48.942;9.104;2022-08-21T03:36:22;17.00;94.00
8105;DHT22;4095;48.942;9.104;2022-08-21T03:38:48;17.00;94.20
8105;DHT22;4095;48.942;9.104;2022-08-21T03:41:13;16.90;94.30
8105;DHT22;4095;48.942;9.104;2022-08-21T03:43:39;16.90;94.20
8105;DHT22;4095;48.942;9.104;2022-08-21T03:46:05;16.90;94.20
8105;DHT22;4095;48.942;9.104;2022-08-21T03:48:31;17.00;94.30
8105;DHT22;4095;48.942;9.104;2022-08-21T03:50:57;17.00;94.30
8105;DHT22;4095;48.942;9.104;2022-08-21T03:53:23;17.00;94.30
8105;DHT22;4095;48.942;9.104;2022-08-21T03:55:50;17.00;94.60
8105;DHT22;4095;48.942;9.104;2022-08-21T03:58:19;17.00;94.50
8105;DHT22;4095;48.942;9.104;2022-08-21T04:00:47;16.90;94.50
8105;DHT22;4095;48.942;9.104;2022-08-21T04:03:15;17.00;94.30
8105;DHT22;4095;48.942;9.104;2022-08-21T04:05:40;17.00;94.30
8105;DHT22;4095;48.942;9.104;2022-08-21T04:08:06;17.00;94.60
8105;DHT22;4095;48.942;9.104;2022-08-21T04:10:36;17.00;94.60
8105;DHT22;4095;48.942;9.104;2022-08-21T04:13:03;17.00;94.90
8105;DHT22;4095;48.942;9.104;2022-08-21T04:15:29;17.00;94.90
8105;DHT22;4095;48.942;9.104;2022-08-21T04:17:55;17.00;95.30
8105;DHT22;4095;48.942;9.104;2022-08-21T04:20:21;16.90;95.50
8105;DHT22;4095;48.942;9.104;2022-08-21T04:22:47;16.90;95.60
8105;DHT22;4095;48.942;9.104;2022-08-21T04:25:15;16.90;95.80
8105;DHT22;4095;48.942;9.104;2022-08-21T04:27:41;16.90;96.10
8105;DHT22;4095;48.942;9.104;2022-08-21T04:30:08;16.90;96.10
8105;DHT22;4095;48.942;9.104;2022-08-21T04:32:35;16.90;96.30
8105;DHT22;4095;48.942;9.104;2022-08-21T04:35:04;16.90;96.20
8105;DHT22;4095;48.942;9.104;2022-08-21T04:37:30;16.90;95.80
8105;DHT22;4095;48.942;9.104;2022-08-21T04:39:56;16.80;95.40
8105;DHT22;4095;48.942;9.104;2022-08-21T04:42:24;16.70;95.00
8105;DHT22;4095;48.942;9.104;2022-08-21T04:44:50;16.70;94.90
8105;DHT22;4095;48.942;9.104;2022-08-21T04:47:16;16.70;94.90
8105;DHT22;4095;48.942;9.104;2022-08-21T04:49:42;16.60;94.80
8105;DHT22;4095;48.942;9.104;2022-08-21T04:52:08;16.50;94.90
8105;DHT22;4095;48.942;9.104;2022-08-21T04:54:34;16.50;94.90
8105;DHT22;4095;48.942;9.104;2022-08-21T04:57:02;16.50;95.00
8105;DHT22;4095;48.942;9.104;2022-08-21T04:59:33;16.60;95.10
8105;DHT22;4095;48.942;9.104;2022-08-21T05:02:01;16.60;95.30
8105;DHT22;4095;48.942;9.104;2022-08-21T05:04:30;16.70;95.20
8105;DHT22;4095;48.942;9.104;2022-08-21T05:07:00;16.80;95.40
8105;DHT22;4095;48.942;9.104;2022-08-21T05:09:27;16.80;95.40
8105;DHT22;4095;48.942;9.104;2022-08-21T05:11:53;16.90;95.70
8105;DHT22;4095;48.942;9.104;2022-08-21T05:14:19;16.90;95.70
8105;DHT22;4095;48.942;9.104;2022-08-21T05:16:46;17.00;96.00
8105;DHT22;4095;48.942;9.104;2022-08-21T05:19:12;17.10;96.20
8105;DHT22;4095;48.942;9.104;2022-08-21T05:21:40;17.10;96.20
8105;DHT22;4095;48.942;9.104;2022-08-21T05:24:07;17.10;96.30
8105;DHT22;4095;48.942;9.104;2022-08-21T05:26:33;17.10;96.30
8105;DHT22;4095;48.942;9.104;2022-08-21T05:28:58;17.10;96.00
8105;DHT22;4095;48.942;9.104;2022-08-21T05:31:24;17.10;95.90
8105;DHT22;4095;48.942;9.104;2022-08-21T05:33:49;17.20;95.80
8105;DHT22;4095;48.942;9.104;2022-08-21T05:36:17;17.30;95.80
8105;DHT22;4095;48.942;9.104;2022-08-21T05:38:42;17.30;95.80
8105;DHT22;4095;48.942;9.104;2022-08-21T05:41:08;17.40;95.70
8105;DHT22;4095;48.942;9.104;2022-08-21T05:43:34;17.50;95.70
8105;DHT22;4095;48.942;9.104;2022-08-21T05:46:02;17.70;96.00
8105;DHT22;4095;48.942;9.104;2022-08-21T05:48:28;17.80;96.10
8105;DHT22;4095;48.942;9.104;2022-08-21T05:50:53;17.90;96.00
8105;DHT22;4095;48.942;9.104;2022-08-21T05:53:20;17.90;95.90
8105;DHT22;4095;48.942;9.104;2022-08-21T05:55:47;18.00;95.80
8105;DHT22;4095;48.942;9.104;2022-08-21T05:58:15;18.00;96.00
8105;DHT22;4095;48.942;9.104;2022-08-21T06:00:42;18.10;95.90
8105;DHT22;4095;48.942;9.104;2022-08-21T06:03:12;18.20;96.00
8105;DHT22;4095;48.942;9.104;2022-08-21T06:05:38;18.20;96.10
8105;DHT22;4095;48.942;9.104;2022-08-21T06:08:04;18.30;96.00
8105;DHT22;4095;48.942;9.104;2022-08-21T06:10:30;18.30;95.70
8105;DHT22;4095;48.942;9.104;2022-08-21T06:12:56;18.40;95.40
8105;DHT22;4095;48.942;9.104;2022-08-21T06:15:22;18.50;95.70
8105;DHT22;4095;48.942;9.104;2022-08-21T06:17:47;18.50;95.50
8105;DHT22;4095;48.942;9.104;2022-08-21T06:20:13;18.70;95.70
8105;DHT22;4095;48.942;9.104;2022-08-21T06:22:38;18.80;95.30
8105;DHT22;4095;48.942;9.104;2022-08-21T06:25:04;18.80;95.20
8105;DHT22;4095;48.942;9.104;2022-08-21T06:27:30;18.90;95.20
8105;DHT22;4095;48.942;9.104;2022-08-21T06:29:55;18.90;94.90
8105;DHT22;4095;48.942;9.104;2022-08-21T06:32:23;19.00;94.90
8105;DHT22;4095;48.942;9.104;2022-08-21T06:34:48;19.10;94.80
8105;DHT22;4095;48.942;9.104;2022-08-21T06:37:14;19.20;94.80
8105;DHT22;4095;48.942;9.104;2022-08-21T06:39:39;19.30;94.80
8105;DHT22;4095;48.942;9.104;2022-08-21T06:42:05;19.30;94.50
8105;DHT22;4095;48.942;9.104;2022-08-21T06:44:31;19.40;94.10
8105;DHT22;4095;48.942;9.104;2022-08-21T06:46:57;19.50;94.30
8105;DHT22;4095;48.942;9.104;2022-08-21T06:49:22;19.60;94.00
8105;DHT22;4095;48.942;9.104;2022-08-21T06:51:48;19.80;94.10
8105;DHT22;4095;48.942;9.104;2022-08-21T06:54:14;19.90;94.50
8105;DHT22;4095;48.942;9.104;2022-08-21T06:56:39;20.00;94.00
8105;DHT22;4095;48.942;9.104;2022-08-21T06:59:05;20.10;94.10
8105;DHT22;4095;48.942;9.104;2022-08-21T07:01:31;20.20;93.90
8105;DHT22;4095;48.942;9.104;2022-08-21T07:03:57;20.20;93.40
8105;DHT22;4095;48.942;9.104;2022-08-21T07:06:22;20.30;93.20
8105;DHT22;4095;48.942;9.104;2022-08-21T07:08:48;20.50;93.80
8105;DHT22;4095;48.942;9.104;2022-08-21T07:11:18;20.50;93.30
8105;DHT22;4095;48.942;9.104;2022-08-21T07:13:44;20.60;92.90
8105;DHT22;4095;48.942;9.104;2022-08-21T07:16:11;20.70;93.20
8105;DHT22;4095;48.942;9.104;2022-08-21T07:18:37;20.80;93.40
8105;DHT22;4095;48.942;9.104;2022-08-21T07:21:04;20.90;93.10
8105;DHT22;4095;48.942;9.104;2022-08-21T07:23:36;21.00;93.10
8105;DHT22;4095;48.942;9.104;2022-08-21T07:26:02;21.10;92.70
8105;DHT22;4095;48.942;9.104;2022-08-21T07:28:28;21.20;92.70
8105;DHT22;4095;48.942;9.104;2022-08-21T07:30:56;21.30;92.60
8105;DHT22;4095;48.942;9.104;2022-08-21T07:33:23;21.40;92.40
8105;DHT22;4095;48.942;9.104;2022-08-21T07:35:49;21.50;92.30
8105;DHT22;4095;48.942;9.104;2022-08-21T07:38:15;21.60;92.10
8105;DHT22;4095;48.942;9.104;2022-08-21T07:40:40;21.70;91.70
8105;DHT22;4095;48.942;9.104;2022-08-21T07:43:06;21.80;91.50
8105;DHT22;4095;48.942;9.104;2022-08-21T07:45:32;21.90;91.40
8105;DHT22;4095;48.942;9.104;2022-08-21T07:47:57;22.00;91.60
8105;DHT22;4095;48.942;9.104;2022-08-21T07:50:23;22.10;91.30
8105;DHT22;4095;48.942;9.104;2022-08-21T07:52:49;22.10;90.60
8105;DHT22;4095;48.942;9.104;2022-08-21T07:55:18;22.20;91.10
8105;DHT22;4095;48.942;9.104;2022-08-21T07:57:45;22.30;91.20
8105;DHT22;4095;48.942;9.104;2022-08-21T08:00:14;22.40;91.00
8105;DHT22;4095;48.942;9.104;2022-08-21T08:02:40;22.50;90.90
8105;DHT22;4095;48.942;9.104;2022-08-21T08:05:09;22.70;90.80
8105;DHT22;4095;48.942;9.104;2022-08-21T08:07:35;22.80;90.50
8105;DHT22;4095;48.942;9.104;2022-08-21T08:10:02;22.90;90.70
8105;DHT22;4095;48.942;9.104;2022-08-21T08:12:28;23.00;90.60
8105;DHT22;4095;48.942;9.104;2022-08-21T08:14:59;23.10;90.70
8105;DHT22;4095;48.942;9.104;2022-08-21T08:17:25;23.20;90.10
8105;DHT22;4095;48.942;9.104;2022-08-21T08:19:51;23.20;89.80
8105;DHT22;4095;48.942;9.104;2022-08-21T08:22:19;23.30;89.50
8105;DHT22;4095;48.942;9.104;2022-08-21T08:24:47;23.30;89.70
8105;DHT22;4095;48.942;9.104;2022-08-21T08:27:14;23.40;88.50
8105;DHT22;4095;48.942;9.104;2022-08-21T08:29:40;23.50;89.40
8105;DHT22;4095;48.942;9.104;2022-08-21T08:32:06;23.60;87.60
8105;DHT22;4095;48.942;9.104;2022-08-21T08:34:36;23.60;88.40
8105;DHT22;4095;48.942;9.104;2022-08-21T08:37:03;23.70;88.00
8105;DHT22;4095;48.942;9.104;2022-08-21T08:39:29;23.80;87.40
8105;DHT22;4095;48.942;9.104;2022-08-21T08:42:15;23.90;87.60
8105;DHT22;4095;48.942;9.104;2022-08-21T08:44:45;24.00;88.10
8105;DHT22;4095;48.942;9.104;2022-08-21T08:47:14;24.20;87.60
8105;DHT22;4095;48.942;9.104;2022-08-21T08:49:49;24.20;87.00
8105;DHT22;4095;48.942;9.104;2022-08-21T08:52:28;24.30;86.40
8105;DHT22;4095;48.942;9.104;2022-08-21T08:57:28;24.50;85.30
8105;DHT22;4095;48.942;9.104;2022-08-21T08:59:58;24.50;85.60
8105;DHT22;4095;48.942;9.104;2022-08-21T09:02:24;24.70;86.10
8105;DHT22;4095;48.942;9.104;2022-08-21T09:04:50;24.80;85.70
8105;DHT22;4095;48.942;9.104;2022-08-21T09:13:21;25.00;84.50
8105;DHT22;4095;48.942;9.104;2022-08-21T09:29:25;25.40;81.10
8105;DHT22;4095;48.942;9.104;2022-08-21T09:31:53;25.60;81.50
8105;DHT22;4095;48.942;9.104;2022-08-21T09:34:28;25.60;80.70
8105;DHT22;4095;48.942;9.104;2022-08-21T09:36:54;25.70;80.60
8105;DHT22;4095;48.942;9.104;2022-08-21T09:39:37;25.80;79.70
8105;DHT22;4095;48.942;9.104;2022-08-21T09:42:06;25.80;79.80
8105;DHT22;4095;48.942;9.104;2022-08-21T09:44:38;26.00;80.70
8105;DHT22;4095;48.942;9.104;2022-08-21T09:47:06;26.10;78.90
8105;DHT22;4095;48.942;9.104;2022-08-21T09:49:35;26.20;79.60
8105;DHT22;4095;48.942;9.104;2022-08-21T09:52:02;26.40;78.70
8105;DHT22;4095;48.942;9.104;2022-08-21T09:54:34;26.50;79.00
8105;DHT22;4095;48.942;9.104;2022-08-21T09:59:54;26.80;75.60
8105;DHT22;4095;48.942;9.104;2022-08-21T10:02:30;26.80;74.00
8105;DHT22;4095;48.942;9.104;2022-08-21T10:05:23;26.90;74.30
8105;DHT22;4095;48.942;9.104;2022-08-21T10:07:49;27.10;74.70
8105;DHT22;4095;48.942;9.104;2022-08-21T10:10:20;27.30;75.00
8105;DHT22;4095;48.942;9.104;2022-08-21T10:13:12;27.40;74.40
8105;DHT22;4095;48.942;9.104;2022-08-21T10:21:27;28.00;73.00
8105;DHT22;4095;48.942;9.104;2022-08-21T10:24:17;28.10;71.80
8105;DHT22;4095;48.942;9.104;2022-08-21T10:35:23;28.60;69.30
8105;DHT22;4095;48.942;9.104;2022-08-21T10:38:24;28.50;68.90
8105;DHT22;4095;48.942;9.104;2022-08-21T10:41:15;28.50;69.30
8105;DHT22;4095;48.942;9.104;2022-08-21T10:43:51;28.70;69.70
8105;DHT22;4095;48.942;9.104;2022-08-21T10:55:08;29.50;66.60
8105;DHT22;4095;48.942;9.104;2022-08-21T10:57:51;29.50;65.80
8105;DHT22;4095;48.942;9.104;2022-08-21T11:00:22;29.50;66.20
8105;DHT22;4095;48.942;9.104;2022-08-21T11:05:33;29.60;65.00
8105;DHT22;4095;48.942;9.104;2022-08-21T11:08:12;29.80;64.90
8105;DHT22;4095;48.942;9.104;2022-08-21T11:10:52;30.00;65.20
8105;DHT22;4095;48.942;9.104;2022-08-21T11:19:05;30.30;64.70
8105;DHT22;4095;48.942;9.104;2022-08-21T11:21:56;30.40;63.70
8105;DHT22;4095;48.942;9.104;2022-08-21T11:24:30;30.40;63.10
8105;DHT22;4095;48.942;9.104;2022-08-21T11:27:14;30.60;62.40
8105;DHT22;4095;48.942;9.104;2022-08-21T11:29:48;30.70;59.60
8105;DHT22;4095;48.942;9.104;2022-08-21T11:38:31;31.10;60.20
8105;DHT22;4095;48.942;9.104;2022-08-21T11:46:49;31.30;58.60
8105;DHT22;4095;48.942;9.104;2022-08-21T11:49:23;31.30;58.80
8105;DHT22;4095;48.942;9.104;2022-08-21T11:51:53;31.30;59.00
8105;DHT22;4095;48.942;9.104;2022-08-21T11:54:26;31.40;58.80
8105;DHT22;4095;48.942;9.104;2022-08-21T11:57:03;31.40;57.00
8105;DHT22;4095;48.942;9.104;2022-08-21T11:59:37;31.40;56.90
8105;DHT22;4095;48.942;9.104;2022-08-21T12:02:13;31.50;56.70
8105;DHT22;4095;48.942;9.104;2022-08-21T12:04:50;31.60;56.50
8105;DHT22;4095;48.942;9.104;2022-08-21T12:08:03;31.50;57.10
8105;DHT22;4095;48.942;9.104;2022-08-21T12:10:31;31.70;56.70
8105;DHT22;4095;48.942;9.104;2022-08-21T12:13:09;31.80;55.70
8105;DHT22;4095;48.942;9.104;2022-08-21T12:15:37;31.90;56.50
8105;DHT22;4095;48.942;9.104;2022-08-21T12:18:21;32.10;55.40
8105;DHT22;4095;48.942;9.104;2022-08-21T12:21:16;32.10;53.90
8105;DHT22;4095;48.942;9.104;2022-08-21T12:23:59;32.10;55.00
8105;DHT22;4095;48.942;9.104;2022-08-21T12:26:47;32.10;54.50
8105;DHT22;4095;48.942;9.104;2022-08-21T12:29:23;32.00;54.00
8105;DHT22;4095;48.942;9.104;2022-08-21T12:31:57;32.00;54.00
8105;DHT22;4095;48.942;9.104;2022-08-21T12:34:28;32.10;55.00
8105;DHT22;4095;48.942;9.104;2022-08-21T12:39:44;32.10;53.70
8105;DHT22;4095;48.942;9.104;2022-08-21T12:42:17;32.10;53.50
8105;DHT22;4095;48.942;9.104;2022-08-21T12:44:49;32.10;52.50
8105;DHT22;4095;48.942;9.104;2022-08-21T12:47:27;31.90;52.70
8105;DHT22;4095;48.942;9.104;2022-08-21T12:52:33;31.60;52.60
8105;DHT22;4095;48.942;9.104;2022-08-21T12:54:59;31.40;52.20
8105;DHT22;4095;48.942;9.104;2022-08-21T12:57:27;31.10;52.00
8105;DHT22;4095;48.942;9.104;2022-08-21T13:00:06;30.90;51.90
8105;DHT22;4095;48.942;9.104;2022-08-21T13:02:38;30.80;54.10
8105;DHT22;4095;48.942;9.104;2022-08-21T13:05:12;30.70;53.10
8105;DHT22;4095;48.942;9.104;2022-08-21T13:07:44;30.70;58.60
8105;DHT22;4095;48.942;9.104;2022-08-21T13:10:28;30.70;60.10
8105;DHT22;4095;48.942;9.104;2022-08-21T13:13:00;30.60;59.20
8105;DHT22;4095;48.942;9.104;2022-08-21T13:15:34;30.50;59.20
8105;DHT22;4095;48.942;9.104;2022-08-21T13:18:01;30.40;59.90
8105;DHT22;4095;48.942;9.104;2022-08-21T13:20:39;30.40;59.70
8105;DHT22;4095;48.942;9.104;2022-08-21T13:23:23;30.40;60.30
8105;DHT22;4095;48.942;9.104;2022-08-21T13:25:48;30.30;59.20
8105;DHT22;4095;48.942;9.104;2022-08-21T13:28:15;30.30;58.10
8105;DHT22;4095;48.942;9.104;2022-08-21T13:30:46;30.10;58.70
8105;DHT22;4095;48.942;9.104;2022-08-21T13:33:15;30.00;58.00
8105;DHT22;4095;48.942;9.104;2022-08-21T13:36:03;30.00;58.10
8105;DHT22;4095;48.942;9.104;2022-08-21T13:38:32;29.80;58.30
8105;DHT22;4095;48.942;9.104;2022-08-21T13:41:03;29.90;59.70
8105;DHT22;4095;48.942;9.104;2022-08-21T13:43:35;29.90;58.20
8105;DHT22;4095;48.942;9.104;2022-08-21T13:46:02;29.80;58.60
8105;DHT22;4095;48.942;9.104;2022-08-21T13:48:33;29.80;58.80
8105;DHT22;4095;48.942;9.104;2022-08-21T13:51:00;29.70;57.30
8105;DHT22;4095;48.942;9.104;2022-08-21T13:53:33;29.60;58.30
8105;DHT22;4095;48.942;9.104;2022-08-21T13:56:00;29.60;57.70
8105;DHT22;4095;48.942;9.104;2022-08-21T13:58:30;29.50;58.80
8105;DHT22;4095;48.942;9.104;2022-08-21T14:00:58;29.40;59.50
8105;DHT22;4095;48.942;9.104;2022-08-21T14:03:42;29.40;59.10
8105;DHT22;4095;48.942;9.104;2022-08-21T14:06:24;29.40;60.80
8105;DHT22;4095;48.942;9.104;2022-08-21T14:08:58;29.40;59.70
8105;DHT22;4095;48.942;9.104;2022-08-21T14:11:26;29.30;57.70
8105;DHT22;4095;48.942;9.104;2022-08-21T14:13:59;29.30;60.00
8105;DHT22;4095;48.942;9.104;2022-08-21T14:16:28;29.20;60.10
8105;DHT22;4095;48.942;9.104;2022-08-21T14:21:34;29.20;60.00
8105;DHT22;4095;48.942;9.104;2022-08-21T14:29:18;29.20;59.70
8105;DHT22;4095;48.942;9.104;2022-08-21T14:31:50;29.20;60.40
8105;DHT22;4095;48.942;9.104;2022-08-21T14:34:16;29.10;61.20
8105;DHT22;4095;48.942;9.104;2022-08-21T14:36:43;29.10;59.90
8105;DHT22;4095;48.942;9.104;2022-08-21T14:39:09;29.10;59.50
8105;DHT22;4095;48.942;9.104;2022-08-21T14:41:35;29.10;60.30
8105;DHT22;4095;48.942;9.104;2022-08-21T14:44:01;29.10;60.30
8105;DHT22;4095;48.942;9.104;2022-08-21T14:46:29;29.10;59.00
8105;DHT22;4095;48.942;9.104;2022-08-21T14:48:55;29.10;59.40
8105;DHT22;4095;48.942;9.104;2022-08-21T14:51:21;29.00;59.40
8105;DHT22;4095;48.942;9.104;2022-08-21T14:53:47;28.90;58.10
8105;DHT22;4095;48.942;9.104;2022-08-21T14:56:14;28.90;58.80
8105;DHT22;4095;48.942;9.104;2022-08-21T14:58:42;28.90;58.30
8105;DHT22;4095;48.942;9.104;2022-08-21T15:01:12;28.90;59.50
8105;DHT22;4095;48.942;9.104;2022-08-21T15:03:38;28.90;58.70
8105;DHT22;4095;48.942;9.104;2022-08-21T15:06:05;28.90;58.80
8105;DHT22;4095;48.942;9.104;2022-08-21T15:08:31;28.90;59.30
8105;DHT22;4095;48.942;9.104;2022-08-21T15:10:58;28.90;60.40
8105;DHT22;4095;48.942;9.104;2022-08-21T15:13:24;28.90;60.80
8105;DHT22;4095;48.942;9.104;2022-08-21T15:15:51;28.90;61.80
8105;DHT22;4095;48.942;9.104;2022-08-21T15:18:19;28.90;61.30
8105;DHT22;4095;48.942;9.104;2022-08-21T15:20:44;28.80;61.00
8105;DHT22;4095;48.942;9.104;2022-08-21T15:23:10;28.80;61.50
8105;DHT22;4095;48.942;9.104;2022-08-21T15:25:36;28.80;61.60
8105;DHT22;4095;48.942;9.104;2022-08-21T15:28:02;28.80;61.20
8105;DHT22;4095;48.942;9.104;2022-08-21T15:30:29;28.70;60.80
8105;DHT22;4095;48.942;9.104;2022-08-21T15:32:56;28.70;61.60
8105;DHT22;4095;48.942;9.104;2022-08-21T15:35:21;28.70;61.50
8105;DHT22;4095;48.942;9.104;2022-08-21T15:37:47;28.60;61.60
8105;DHT22;4095;48.942;9.104;2022-08-21T15:40:15;28.60;61.10
8105;DHT22;4095;48.942;9.104;2022-08-21T15:42:42;28.60;61.80
8105;DHT22;4095;48.942;9.104;2022-08-21T15:45:09;28.50;61.90
8105;DHT22;4095;48.942;9.104;2022-08-21T15:47:37;28.50;62.30
8105;DHT22;4095;48.942;9.104;2022-08-21T15:50:06;28.50;62.20
8105;DHT22;4095;48.942;9.104;2022-08-21T15:52:32;28.50;62.20
8105;DHT22;4095;48.942;9.104;2022-08-21T15:54:58;28.40;61.00
8105;DHT22;4095;48.942;9.104;2022-08-21T15:57:24;28.40;62.10
8105;DHT22;4095;48.942;9.104;2022-08-21T15:59:59;28.40;61.90
8105;DHT22;4095;48.942;9.104;2022-08-21T16:02:33;28.40;62.20
8105;DHT22;4095;48.942;9.104;2022-08-21T16:04:59;28.40;62.50
8105;DHT22;4095;48.942;9.104;2022-08-21T16:07:25;28.30;62.10
8105;DHT22;4095;48.942;9.104;2022-08-21T16:09:51;28.30;61.60
8105;DHT22;4095;48.942;9.104;2022-08-21T16:12:47;28.30;61.80
8105;DHT22;4095;48.942;9.104;2022-08-21T16:15:15;28.20;60.80
8105;DHT22;4095;48.942;9.104;2022-08-21T16:17:43;28.20;61.70
8105;DHT22;4095;48.942;9.104;2022-08-21T16:20:15;28.20;61.40
8105;DHT22;4095;48.942;9.104;2022-08-21T16:22:41;28.20;61.20
8105;DHT22;4095;48.942;9.104;2022-08-21T16:25:07;28.20;60.60
8105;DHT22;4095;48.942;9.104;2022-08-21T16:27:34;28.10;60.70
8105;DHT22;4095;48.942;9.104;2022-08-21T16:30:01;28.10;61.80
8105;DHT22;4095;48.942;9.104;2022-08-21T16:32:27;28.10;61.10
8105;DHT22;4095;48.942;9.104;2022-08-21T16:34:54;28.00;60.50
8105;DHT22;4095;48.942;9.104;2022-08-21T16:37:19;28.00;61.30
8105;DHT22;4095;48.942;9.104;2022-08-21T16:39:46;28.00;61.30
8105;DHT22;4095;48.942;9.104;2022-08-21T16:42:14;28.00;60.30
8105;DHT22;4095;48.942;9.104;2022-08-21T16:44:42;27.90;62.30
8105;DHT22;4095;48.942;9.104;2022-08-21T16:47:08;27.90;60.30
8105;DHT22;4095;48.942;9.104;2022-08-21T16:49:34;27.90;60.70
8105;DHT22;4095;48.942;9.104;2022-08-21T16:52:00;27.90;61.60
8105;DHT22;4095;48.942;9.104;2022-08-21T16:54:25;27.90;61.00
8105;DHT22;4095;48.942;9.104;2022-08-21T16:56:51;27.80;60.60
8105;DHT22;4095;48.942;9.104;2022-08-21T16:59:17;27.80;60.00
8105;DHT22;4095;48.942;9.104;2022-08-21T17:01:42;27.80;60.90
8105;DHT22;4095;48.942;9.104;2022-08-21T17:04:08;27.80;60.20
8105;DHT22;4095;48.942;9.104;2022-08-21T17:06:34;27.70;61.60
8105;DHT22;4095;48.942;9.104;2022-08-21T17:08:59;27.70;60.80
8105;DHT22;4095;48.942;9.104;2022-08-21T17:11:38;27.70;59.60
8105;DHT22;4095;48.942;9.104;2022-08-21T17:14:13;27.70;60.60
8105;DHT22;4095;48.942;9.104;2022-08-21T17:16:43;27.60;61.20
8105;DHT22;4095;48.942;9.104;2022-08-21T17:19:09;27.60;60.40
8105;DHT22;4095;48.942;9.104;2022-08-21T17:21:34;27.60;61.30
8105;DHT22;4095;48.942;9.104;2022-08-21T17:24:00;27.60;61.80
8105;DHT22;4095;48.942;9.104;2022-08-21T17:26:26;27.50;59.10
8105;DHT22;4095;48.942;9.104;2022-08-21T17:28:52;27.50;60.50
8105;DHT22;4095;48.942;9.104;2022-08-21T17:31:17;27.40;62.30
8105;DHT22;4095;48.942;9.104;2022-08-21T17:33:45;27.40;61.30